createdAt,value
2018-05-09T00:00:35.717Z,46.80
2018-05-09T00:03:04.257Z,47.00
2018-05-09T00:05:31.842Z,47.00
2018-05-09T00:07:59.453Z,47.00
2018-05-09T00:10:27.088Z,47.10
2018-05-09T00:12:54.732Z,47.20
2018-05-09T00:15:22.344Z,47.30
2018-05-09T00:17:49.968Z,47.40
2018-05-09T00:20:17.583Z,47.60
2018-05-09T00:22:45.456Z,47.90
2018-05-09T00:25:13.128Z,47.90
2018-05-09T00:27:40.765Z,48.10
2018-05-09T00:30:08.383Z,48.30
2018-05-09T00:32:35.996Z,48.60
2018-05-09T00:35:03.619Z,49.50
2018-05-09T00:37:31.998Z,49.30
2018-05-09T00:40:00.337Z,49.50
2018-05-09T00:42:28.001Z,49.50
2018-05-09T00:44:55.754Z,49.70
2018-05-09T00:47:23.339Z,49.90
2018-05-09T00:49:50.987Z,50.20
2018-05-09T00:52:18.633Z,50.50
2018-05-09T00:54:46.245Z,50.80
2018-05-09T00:57:13.875Z,51.00
2018-05-09T00:59:41.498Z,51.10
2018-05-09T01:02:09.137Z,51.40
2018-05-09T01:04:36.813Z,51.60
2018-05-09T01:07:04.429Z,51.80
2018-05-09T01:09:32.838Z,52.30
2018-05-09T01:12:00.448Z,52.30
2018-05-09T01:14:28.902Z,52.60
2018-05-09T01:16:56.519Z,52.60
2018-05-09T01:19:24.870Z,53.10
2018-05-09T01:21:52.516Z,53.10
2018-05-09T01:24:20.167Z,53.00
2018-05-09T01:26:48.578Z,53.30
2018-05-09T01:29:16.259Z,53.20
2018-05-09T01:31:44.629Z,53.60
2018-05-09T01:34:13.044Z,53.80
2018-05-09T01:36:40.623Z,53.80
2018-05-09T01:39:08.245Z,54.10
2018-05-09T01:41:36.704Z,54.40
2018-05-09T01:44:05.055Z,54.80
2018-05-09T01:46:32.639Z,54.80
2018-05-09T01:49:01.085Z,55.20
2018-05-09T01:51:28.665Z,55.10
2018-05-09T01:53:56.312Z,55.30
2018-05-09T01:56:24.404Z,55.60
2018-05-09T01:58:52.764Z,56.00
2018-05-09T02:01:20.446Z,56.00
2018-05-09T02:03:48.124Z,56.40
2018-05-09T02:06:16.522Z,56.80
2018-05-09T02:08:44.160Z,56.70
2018-05-09T02:11:12.543Z,57.20
2018-05-09T02:13:41.497Z,57.50
2018-05-09T02:16:09.110Z,57.50
2018-05-09T02:18:36.719Z,57.90
2018-05-09T02:21:04.297Z,58.10
2018-05-09T02:23:31.942Z,58.50
2018-05-09T02:25:59.553Z,59.10
2018-05-09T02:28:27.163Z,59.00
2018-05-09T02:30:55.385Z,59.20
2018-05-09T02:33:23.032Z,59.40
2018-05-09T02:35:50.625Z,59.60
2018-05-09T02:38:18.240Z,59.80
2018-05-09T02:40:46.638Z,60.30
2018-05-09T02:43:15.000Z,60.50
2018-05-09T02:45:43.464Z,60.90
2018-05-09T02:48:11.824Z,61.00
2018-05-09T02:50:39.465Z,60.90
2018-05-09T02:53:07.154Z,61.10
2018-05-09T02:55:34.740Z,61.50
2018-05-09T02:58:03.150Z,62.40
2018-05-09T03:00:30.758Z,62.40
2018-05-09T03:02:59.165Z,62.80
2018-05-09T03:05:26.749Z,62.80
2018-05-09T03:07:54.352Z,63.00
2018-05-09T03:10:22.269Z,63.30
2018-05-09T03:12:49.855Z,63.50
2018-05-09T03:15:17.480Z,63.80
2018-05-09T03:17:45.061Z,64.10
2018-05-09T03:20:12.631Z,64.20
2018-05-09T03:22:40.235Z,64.40
2018-05-09T03:25:08.613Z,64.80
2018-05-09T03:27:37.003Z,64.90
2018-05-09T03:30:05.393Z,65.00
2018-05-09T03:32:33.018Z,65.00
2018-05-09T03:35:00.642Z,65.10
2018-05-09T03:37:28.332Z,65.20
2018-05-09T03:39:55.904Z,65.40
2018-05-09T03:42:24.896Z,65.50
2018-05-09T03:44:53.292Z,66.50
2018-05-09T03:47:21.711Z,65.70
2018-05-09T03:49:50.082Z,65.70
2018-05-09T03:52:17.685Z,65.70
2018-05-09T03:54:46.083Z,65.70
2018-05-09T03:57:14.452Z,66.20
2018-05-09T03:59:42.859Z,65.80
2018-05-09T04:02:22.464Z,65.60
2018-05-09T04:05:01.916Z,65.70
2018-05-09T04:07:42.299Z,65.50
2018-05-09T04:10:09.891Z,65.40
2018-05-09T04:12:37.486Z,65.40
2018-05-09T04:15:05.891Z,65.80
2018-05-09T04:17:33.483Z,65.80
2018-05-09T04:20:01.143Z,65.80
2018-05-09T04:22:28.776Z,65.70
2018-05-09T04:24:56.474Z,65.60
2018-05-09T04:27:24.047Z,65.50
2018-05-09T04:29:51.696Z,65.30
2018-05-09T04:32:19.281Z,65.20
2018-05-09T04:34:46.901Z,65.20
2018-05-09T04:37:14.577Z,64.40
2018-05-09T04:39:42.245Z,65.10
2018-05-09T04:42:10.048Z,64.70
2018-05-09T04:44:38.405Z,64.60
2018-05-09T04:47:06.128Z,64.60
2018-05-09T04:49:33.957Z,64.40
2018-05-09T04:52:01.621Z,64.30
2018-05-09T04:54:29.237Z,64.10
2018-05-09T04:56:56.876Z,63.90
2018-05-09T04:59:24.487Z,63.80
2018-05-09T05:01:52.914Z,63.40
2018-05-09T05:04:20.613Z,63.30
2018-05-09T05:06:49.004Z,63.00
2018-05-09T05:09:17.414Z,62.90
2018-05-09T05:11:45.088Z,62.90
2018-05-09T05:14:12.738Z,62.70
2018-05-09T05:16:41.301Z,62.50
2018-05-09T05:19:08.924Z,63.00
2018-05-09T05:21:36.511Z,62.30
2018-05-09T05:24:04.898Z,62.30
2018-05-09T05:26:32.550Z,62.20
2018-05-09T05:29:00.936Z,62.00
2018-05-09T05:31:29.189Z,61.90
2018-05-09T05:33:58.276Z,61.50
2018-05-09T05:36:25.886Z,61.50
2018-05-09T05:38:53.637Z,61.20
2018-05-09T05:41:21.163Z,61.20
2018-05-09T05:43:48.959Z,61.20
2018-05-09T05:46:16.598Z,61.10
2018-05-09T05:48:44.956Z,60.80
2018-05-09T05:51:12.569Z,60.80
2018-05-09T05:53:40.273Z,60.80
2018-05-09T05:56:07.940Z,60.50
2018-05-09T05:58:35.546Z,60.20
2018-05-09T06:01:03.260Z,60.00
2018-05-09T06:03:30.912Z,60.00
2018-05-09T06:05:58.511Z,60.00
2018-05-09T06:08:26.908Z,59.50
2018-05-09T06:10:55.498Z,59.50
2018-05-09T06:13:23.181Z,59.30
2018-05-09T06:15:50.865Z,59.00
2018-05-09T06:18:18.464Z,58.60
2018-05-09T06:20:46.086Z,58.60
2018-05-09T06:23:13.747Z,58.30
2018-05-09T06:25:41.340Z,57.90
2018-05-09T06:28:09.732Z,56.80
2018-05-09T06:30:37.421Z,56.80
2018-05-09T06:33:06.186Z,56.50
2018-05-09T06:35:34.048Z,56.00
2018-05-09T06:38:01.722Z,54.80
2018-05-09T06:40:29.341Z,53.70
2018-05-09T06:42:57.733Z,53.30
2018-05-09T06:45:26.128Z,53.00
2018-05-09T06:47:53.749Z,53.00
2018-05-09T06:50:21.357Z,53.10
2018-05-09T06:52:49.569Z,52.90
2018-05-09T06:55:17.181Z,52.70
2018-05-09T06:57:44.768Z,52.40
2018-05-09T07:00:13.327Z,52.30
2018-05-09T07:02:41.786Z,52.00
2018-05-09T07:05:09.904Z,52.10
2018-05-09T07:07:37.574Z,51.90
2018-05-09T07:10:05.195Z,52.40
2018-05-09T07:12:32.864Z,52.70
2018-05-09T07:15:00.501Z,52.70
2018-05-09T07:17:28.088Z,52.30
2018-05-09T07:19:56.034Z,51.90
2018-05-09T07:22:23.713Z,51.90
2018-05-09T07:24:51.491Z,51.40
2018-05-09T07:27:19.718Z,51.70
2018-05-09T07:29:48.144Z,51.50
2018-05-09T07:32:15.741Z,51.50
2018-05-09T07:34:43.453Z,51.20
2018-05-09T07:37:11.204Z,50.80
2018-05-09T07:39:38.900Z,50.20
2018-05-09T07:42:06.565Z,49.30
2018-05-09T07:44:34.187Z,49.30
2018-05-09T07:47:01.849Z,49.10
2018-05-09T07:49:29.477Z,49.00
2018-05-09T07:51:58.136Z,47.60
2018-05-09T07:54:25.722Z,47.60
2018-05-09T07:56:54.151Z,46.80
2018-05-09T07:59:21.822Z,46.80
2018-05-09T08:01:49.792Z,46.70
2018-05-09T08:04:17.449Z,46.60
2018-05-09T08:06:45.040Z,46.60
2018-05-09T08:09:13.424Z,46.90
2018-05-09T08:11:41.855Z,46.90
2018-05-09T08:14:09.468Z,46.90
2018-05-09T08:16:37.058Z,47.10
2018-05-09T08:19:04.757Z,47.00
2018-05-09T08:21:33.722Z,46.30
2018-05-09T08:24:01.336Z,46.90
2018-05-09T08:26:29.070Z,46.50
2018-05-09T08:28:56.665Z,46.60
2018-05-09T08:31:25.035Z,46.00
2018-05-09T08:33:52.658Z,46.40
2018-05-09T08:36:20.269Z,46.40
2018-05-09T08:38:47.897Z,45.90
2018-05-09T08:41:15.527Z,46.40
2018-05-09T08:43:43.150Z,46.60
2018-05-09T08:46:11.599Z,45.70
2018-05-09T08:48:39.207Z,45.70
2018-05-09T08:51:07.669Z,44.60
2018-05-09T08:53:36.019Z,43.60
2018-05-09T08:56:03.661Z,44.10
2018-05-09T08:58:31.252Z,44.20
2018-05-09T09:00:58.905Z,43.10
2018-05-09T09:03:26.564Z,42.50
2018-05-09T09:05:54.193Z,42.40
2018-05-09T09:08:21.833Z,42.60
2018-05-09T09:10:49.521Z,42.40
2018-05-09T09:13:17.814Z,40.50
2018-05-09T09:15:45.580Z,40.50
2018-05-09T09:18:13.861Z,40.10
2018-05-09T09:20:41.478Z,40.60
2018-05-09T09:23:09.155Z,40.50
2018-05-09T09:25:36.741Z,40.50
2018-05-09T09:28:04.398Z,40.20
2018-05-09T09:30:32.060Z,39.10
2018-05-09T09:32:59.645Z,38.70
2018-05-09T09:35:27.259Z,39.20
2018-05-09T09:37:54.864Z,39.10
2018-05-09T09:40:22.432Z,38.20
2018-05-09T09:42:50.789Z,36.00
2018-05-09T09:45:18.428Z,36.00
2018-05-09T09:47:46.007Z,35.30
2018-05-09T09:50:15.102Z,35.80
2018-05-09T09:52:42.707Z,35.80
2018-05-09T09:55:10.293Z,35.50
2018-05-09T09:57:37.911Z,35.10
2018-05-09T10:00:07.017Z,35.00
2018-05-09T10:02:34.612Z,34.90
2018-05-09T10:05:02.301Z,35.10
2018-05-09T10:07:29.898Z,35.00
2018-05-09T10:09:57.475Z,34.80
2018-05-09T10:12:25.108Z,33.90
2018-05-09T10:14:53.455Z,35.00
2018-05-09T10:17:21.090Z,34.90
2018-05-09T10:19:48.674Z,34.50
2018-05-09T10:22:16.283Z,34.40
2018-05-09T10:24:43.911Z,33.70
2018-05-09T10:27:12.293Z,33.60
2018-05-09T10:29:39.953Z,33.60
2018-05-09T10:32:08.305Z,33.60
2018-05-09T10:34:35.939Z,33.50
2018-05-09T10:37:04.040Z,33.80
2018-05-09T10:39:31.684Z,33.20
2018-05-09T10:42:03.105Z,33.00
2018-05-09T10:44:31.709Z,33.10
2018-05-09T10:46:59.323Z,32.90
2018-05-09T10:49:27.704Z,33.20
2018-05-09T10:51:55.382Z,33.20
2018-05-09T10:54:22.955Z,33.00
2018-05-09T10:56:50.628Z,33.10
2018-05-09T10:59:18.287Z,33.30
2018-05-09T11:01:46.054Z,33.10
2018-05-09T11:04:13.673Z,33.00
2018-05-09T11:06:42.605Z,33.00
2018-05-09T11:09:10.233Z,33.10
2018-05-09T11:11:38.242Z,33.30
2018-05-09T11:14:05.908Z,32.60
2018-05-09T11:16:33.607Z,32.50
2018-05-09T11:19:02.009Z,32.60
2018-05-09T11:21:30.445Z,32.60
2018-05-09T11:23:58.097Z,32.30
2018-05-09T11:26:25.845Z,32.40
2018-05-09T11:28:53.472Z,31.40
2018-05-09T11:31:21.103Z,31.50
2018-05-09T11:33:49.550Z,30.90
2018-05-09T11:36:17.248Z,31.40
2018-05-09T11:38:45.660Z,30.90
2018-05-09T11:41:13.264Z,30.90
2018-05-09T11:43:40.935Z,31.10
2018-05-09T11:46:08.590Z,31.40
2018-05-09T11:48:37.039Z,31.40
2018-05-09T11:51:04.689Z,31.70
2018-05-09T11:53:32.312Z,32.10
2018-05-09T11:56:00.807Z,32.50
2018-05-09T11:58:28.435Z,32.40
2018-05-09T12:00:56.105Z,32.60
2018-05-09T12:03:24.546Z,33.30
2018-05-09T12:05:52.154Z,33.30
2018-05-09T12:08:20.539Z,33.80
2018-05-09T12:10:52.152Z,33.80
2018-05-09T12:13:19.674Z,33.80
2018-05-09T12:15:47.305Z,33.50
2018-05-09T12:18:15.709Z,32.80
2018-05-09T12:20:43.299Z,32.80
2018-05-09T12:23:11.530Z,32.00
2018-05-09T12:25:39.159Z,30.90
2018-05-09T12:28:06.770Z,29.90
2018-05-09T12:30:34.892Z,29.60
2018-05-09T12:33:02.525Z,28.40
2018-05-09T12:35:30.128Z,27.50
2018-05-09T12:37:58.473Z,26.30
2018-05-09T12:40:26.137Z,26.30
2018-05-09T12:42:53.757Z,26.00
2018-05-09T12:45:21.379Z,25.80
2018-05-09T12:47:49.789Z,26.50
2018-05-09T12:50:17.425Z,26.50
2018-05-09T12:52:45.894Z,27.80
2018-05-09T12:55:14.282Z,28.30
2018-05-09T12:57:42.708Z,28.60
2018-05-09T13:00:10.590Z,28.50
2018-05-09T13:02:38.211Z,28.70
2018-05-09T13:05:05.843Z,29.20
2018-05-09T13:07:34.304Z,29.00
2018-05-09T13:10:01.894Z,28.90
2018-05-09T13:12:30.315Z,28.60
2018-05-09T13:14:57.955Z,28.60
2018-05-09T13:17:25.527Z,28.90
2018-05-09T13:19:53.893Z,28.40
2018-05-09T13:22:21.870Z,27.50
2018-05-09T13:24:49.512Z,26.70
2018-05-09T13:27:17.157Z,26.00
2018-05-09T13:29:45.577Z,24.50
2018-05-09T13:32:13.245Z,24.50
2018-05-09T13:34:40.859Z,24.00
2018-05-09T13:37:09.282Z,22.80
2018-05-09T13:39:36.891Z,22.70
2018-05-09T13:42:05.356Z,21.60
2018-05-09T13:44:33.788Z,21.80
2018-05-09T13:47:01.415Z,21.20
2018-05-09T13:49:29.800Z,20.70
2018-05-09T13:51:58.206Z,21.00
2018-05-09T13:54:25.892Z,21.00
2018-05-09T13:56:53.620Z,20.80
2018-05-09T13:59:21.217Z,21.50
2018-05-09T14:01:48.840Z,22.80
2018-05-09T14:04:16.487Z,22.60
2018-05-09T14:06:44.972Z,21.60
2018-05-09T14:09:13.622Z,21.50
2018-05-09T14:11:41.257Z,21.50
2018-05-09T14:14:08.950Z,21.70
2018-05-09T14:16:38.026Z,21.80
2018-05-09T14:19:05.672Z,21.30
2018-05-09T14:21:33.322Z,21.10
2018-05-09T14:24:00.971Z,21.80
2018-05-09T14:26:28.593Z,22.20
2018-05-09T14:28:57.053Z,22.00
2018-05-09T14:31:24.683Z,21.90
2018-05-09T14:33:52.273Z,21.20
2018-05-09T14:36:19.962Z,21.40
2018-05-09T14:38:48.408Z,21.30
2018-05-09T14:41:16.031Z,21.30
2018-05-09T14:43:43.650Z,21.00
2018-05-09T14:46:12.048Z,20.40
2018-05-09T14:48:40.449Z,20.30
2018-05-09T14:51:08.040Z,20.30
2018-05-09T14:53:35.686Z,20.40
2018-05-09T14:56:03.300Z,20.00
2018-05-09T14:58:31.673Z,21.80
2018-05-09T15:00:59.274Z,21.70
2018-05-09T15:03:26.977Z,22.90
2018-05-09T15:05:55.363Z,21.80
2018-05-09T15:08:23.732Z,21.50
2018-05-09T15:10:52.762Z,21.70
2018-05-09T15:13:20.389Z,21.30
2018-05-09T15:15:48.011Z,20.90
2018-05-09T15:18:15.652Z,20.30
2018-05-09T15:20:43.264Z,20.10
2018-05-09T15:23:12.385Z,19.90
2018-05-09T15:25:40.826Z,20.80
2018-05-09T15:28:08.499Z,20.80
2018-05-09T15:30:36.133Z,21.10
2018-05-09T15:33:04.144Z,20.60
2018-05-09T15:35:31.767Z,20.90
2018-05-09T15:37:59.404Z,22.20
2018-05-09T15:40:26.991Z,22.50
2018-05-09T15:42:54.604Z,21.90
2018-05-09T15:45:23.030Z,22.10
2018-05-09T15:47:50.600Z,22.10
2018-05-09T15:50:18.284Z,21.90
2018-05-09T15:52:45.864Z,21.60
2018-05-09T15:55:14.320Z,22.10
2018-05-09T15:57:41.956Z,22.10
2018-05-09T16:00:09.629Z,22.50
2018-05-09T16:02:38.743Z,22.70
2018-05-09T16:05:06.836Z,22.70
2018-05-09T16:07:34.502Z,22.60
2018-05-09T16:10:02.140Z,22.50
2018-05-09T16:12:30.552Z,23.20
2018-05-09T16:14:58.152Z,23.20
2018-05-09T16:17:26.251Z,23.10
2018-05-09T16:19:54.822Z,25.00
2018-05-09T16:22:23.281Z,25.70
2018-05-09T16:24:50.903Z,25.70
2018-05-09T16:27:18.567Z,26.90
2018-05-09T16:29:46.196Z,27.60
2018-05-09T16:32:14.609Z,28.90
2018-05-09T16:34:42.244Z,28.50
2018-05-09T16:37:10.620Z,29.70
2018-05-09T16:39:39.061Z,30.00
2018-05-09T16:42:06.654Z,29.90
2018-05-09T16:44:35.052Z,30.40
2018-05-09T16:47:03.413Z,30.90
2018-05-09T16:49:31.839Z,31.40
2018-05-09T16:51:59.444Z,31.40
2018-05-09T16:54:27.830Z,32.20
2018-05-09T16:56:56.284Z,32.20
2018-05-09T16:59:23.937Z,32.10
2018-05-09T17:01:51.527Z,32.50
2018-05-09T17:04:19.940Z,33.10
2018-05-09T17:06:47.624Z,33.10
2018-05-09T17:09:15.274Z,33.10
2018-05-09T17:11:42.941Z,33.10
2018-05-09T17:14:10.527Z,32.70
2018-05-09T17:16:38.137Z,32.40
2018-05-09T17:19:05.751Z,32.60
2018-05-09T17:21:45.413Z,32.60
2018-05-09T17:24:13.818Z,33.10
2018-05-09T17:26:41.457Z,33.10
2018-05-09T17:29:09.872Z,33.50
2018-05-09T17:31:37.601Z,33.50
2018-05-09T17:34:05.976Z,33.60
2018-05-09T17:36:34.345Z,33.90
2018-05-09T17:39:01.919Z,33.90
2018-05-09T17:41:30.340Z,34.30
2018-05-09T17:43:58.011Z,34.20
2018-05-09T17:46:25.987Z,34.40
2018-05-09T17:48:53.573Z,34.50
2018-05-09T17:51:21.187Z,35.50
2018-05-09T17:53:48.895Z,36.20
2018-05-09T17:56:17.300Z,36.90
2018-05-09T17:58:45.245Z,36.90
2018-05-09T18:01:13.595Z,38.00
2018-05-09T18:03:41.245Z,38.00
2018-05-09T18:06:08.865Z,40.10
2018-05-09T18:08:36.534Z,45.50
2018-05-09T18:11:04.234Z,47.60
2018-05-09T18:13:31.872Z,49.50
2018-05-09T18:15:59.557Z,51.10
2018-05-09T18:18:27.173Z,52.20
2018-05-09T18:20:54.785Z,53.70
2018-05-09T18:23:22.553Z,54.60
2018-05-09T18:25:50.218Z,56.70
2018-05-09T18:28:17.817Z,56.90
2018-05-09T18:30:45.394Z,58.20
2018-05-09T18:33:13.016Z,59.00
2018-05-09T18:35:41.399Z,59.50
2018-05-09T18:38:09.866Z,60.70
2018-05-09T18:40:37.536Z,60.70
2018-05-09T18:43:05.940Z,61.40
2018-05-09T18:45:33.527Z,61.30
2018-05-09T18:48:01.168Z,62.00
2018-05-09T18:50:28.793Z,61.00
2018-05-09T18:52:57.208Z,64.10
2018-05-09T18:55:24.888Z,64.10
2018-05-09T18:57:52.560Z,65.20
2018-05-09T19:00:20.217Z,67.40
2018-05-09T19:02:47.803Z,69.10
2018-05-09T19:05:16.223Z,68.70
2018-05-09T19:07:43.830Z,68.70
2018-05-09T19:10:11.429Z,68.50
2018-05-09T19:12:39.104Z,70.40
2018-05-09T19:15:06.750Z,72.90
2018-05-09T19:17:35.112Z,72.60
2018-05-09T19:20:03.638Z,72.40
2018-05-09T19:22:31.362Z,72.40
2018-05-09T19:24:59.831Z,72.90
2018-05-09T19:27:28.580Z,73.20
2018-05-09T19:29:56.565Z,73.20
2018-05-09T19:32:24.229Z,71.20
2018-05-09T19:34:51.921Z,70.30
2018-05-09T19:37:20.353Z,70.20
2018-05-09T19:39:48.484Z,70.10
2018-05-09T19:42:18.897Z,70.10
2018-05-09T19:44:47.381Z,70.30
2018-05-09T19:47:16.343Z,68.60
2018-05-09T19:49:44.467Z,68.60
2018-05-09T19:52:12.144Z,65.60
2018-05-09T19:54:43.452Z,65.00
2018-05-09T19:57:11.926Z,63.70
2018-05-09T19:59:40.767Z,64.00
2018-05-09T20:02:08.421Z,64.00
2018-05-09T20:04:36.105Z,63.90
2018-05-09T20:07:04.670Z,64.50
2018-05-09T20:09:32.420Z,64.40
2018-05-09T20:12:00.268Z,64.70
2018-05-09T20:14:27.881Z,64.90
2018-05-09T20:16:55.651Z,64.30
2018-05-09T20:19:24.070Z,65.00
2018-05-09T20:21:52.374Z,64.30
2018-05-09T20:24:20.985Z,64.60
2018-05-09T20:26:53.924Z,64.80
2018-05-09T20:29:22.665Z,64.80
2018-05-09T20:32:02.101Z,64.00
2018-05-09T20:34:29.764Z,64.50
2018-05-09T20:36:58.317Z,63.00
2018-05-09T20:39:26.776Z,62.60
2018-05-09T20:41:54.459Z,62.70
2018-05-09T20:44:22.148Z,62.30
2018-05-09T20:46:50.589Z,62.50
2018-05-09T20:49:18.428Z,63.40
2018-05-09T20:51:51.891Z,62.50
2018-05-09T20:54:19.551Z,62.10
2018-05-09T20:56:48.013Z,60.40
2018-05-09T20:59:18.315Z,60.40
2018-05-09T21:01:48.053Z,60.00
2018-05-09T21:04:15.637Z,58.90
2018-05-09T21:06:44.077Z,60.00
2018-05-09T21:09:11.924Z,60.00
2018-05-09T21:11:40.243Z,61.40
2018-05-09T21:14:09.421Z,62.10
2018-05-09T21:16:37.067Z,62.00
2018-05-09T21:19:04.772Z,62.60
2018-05-09T21:21:33.145Z,63.70
2018-05-09T21:24:00.795Z,63.60
2018-05-09T21:26:28.467Z,64.00
2018-05-09T21:28:57.030Z,64.40
2018-05-09T21:31:24.649Z,64.40
2018-05-09T21:33:52.263Z,64.90
2018-05-09T21:36:19.835Z,65.00
2018-05-09T21:38:47.708Z,65.20
2018-05-09T21:41:16.059Z,65.30
2018-05-09T21:43:43.810Z,65.30
2018-05-09T21:46:11.475Z,65.20
2018-05-09T21:48:39.125Z,65.30
2018-05-09T21:51:06.736Z,65.60
2018-05-09T21:53:35.126Z,66.00
2018-05-09T21:56:02.909Z,66.00
2018-05-09T21:58:31.215Z,66.90
2018-05-09T22:00:58.960Z,66.00
2018-05-09T22:03:26.544Z,66.20
2018-05-09T22:05:54.113Z,66.50
2018-05-09T22:08:22.636Z,66.70
2018-05-09T22:10:50.276Z,67.00
2018-05-09T22:13:17.946Z,67.10
2018-05-09T22:15:45.557Z,67.30
2018-05-09T22:18:13.181Z,67.40
2018-05-09T22:20:40.802Z,67.30
2018-05-09T22:23:08.414Z,67.60
2018-05-09T22:25:36.083Z,67.70
2018-05-09T22:28:03.672Z,67.40
2018-05-09T22:30:31.317Z,67.70
2018-05-09T22:32:58.916Z,67.70
2018-05-09T22:35:27.272Z,67.30
2018-05-09T22:37:54.889Z,67.30
2018-05-09T22:40:22.463Z,67.50
2018-05-09T22:42:50.119Z,67.40
2018-05-09T22:45:18.451Z,67.80
2018-05-09T22:47:46.825Z,67.90
2018-05-09T22:50:15.243Z,67.80
2018-05-09T22:52:42.928Z,67.80
2018-05-09T22:55:10.609Z,68.20
2018-05-09T22:57:39.707Z,68.00
2018-05-09T23:00:08.120Z,67.90
2018-05-09T23:02:36.638Z,68.00
2018-05-09T23:05:04.273Z,67.90
2018-05-09T23:07:32.671Z,67.90
2018-05-09T23:10:00.272Z,67.80
2018-05-09T23:12:27.900Z,67.50
2018-05-09T23:14:55.551Z,66.80
2018-05-09T23:17:23.216Z,67.90
2018-05-09T23:19:50.831Z,67.00
2018-05-09T23:22:19.180Z,67.00
2018-05-09T23:24:46.794Z,66.90
2018-05-09T23:27:14.420Z,67.10
2018-05-09T23:29:42.828Z,67.70
2018-05-09T23:32:10.519Z,67.70
2018-05-09T23:34:38.711Z,67.80
2018-05-09T23:37:06.296Z,67.90
2018-05-09T23:39:34.679Z,68.20
2018-05-09T23:42:03.095Z,68.40
2018-05-09T23:44:30.748Z,68.40
2018-05-09T23:46:58.395Z,68.40
2018-05-09T23:49:26.000Z,68.40
2018-05-09T23:51:53.580Z,68.50
2018-05-09T23:54:21.223Z,68.50
2018-05-09T23:56:48.851Z,68.40
2018-05-09T23:59:16.443Z,68.40
